Time;durP1;ratioP1;P1;durP2;ratioP2;P2;SDS_P1;SDS_P2;PMS_P1;PMS_P2;Temp;Humidity;BMP_temperature;BMP_pressure;BME280_temperature;BME280_humidity;BME280_pressure;Samples;Min_cycle;Max_cycle;Signal;HPM_P1;HPM_P2
2024/04/20 00:02:15;;;;;;;2.85;2.15;;;;;;;;;;5451440;26;20278;-72
2024/04/20 00:04:43;;;;;;;2.10;1.80;;;;;;;;;;5451229;26;20732;-71
2024/04/20 00:07:12;;;;;;;1.98;1.85;;;;;;;;;;5451339;26;20292;-72
2024/04/20 00:09:43;;;;;;;3.83;2.30;;;;;;;;;;5451311;26;20233;-72
2024/04/20 00:12:15;;;;;;;2.15;1.52;;;;;;;;;;5451373;26;20230;-72
2024/04/20 00:14:43;;;;;;;2.72;2.20;;;;;;;;;;5451007;26;20367;-72
2024/04/20 00:17:12;;;;;;;2.25;2.08;;;;;;;;;;5451249;26;20242;-71
2024/04/20 00:19:42;;;;;;;2.28;1.95;;;;;;;;;;5450979;26;20277;-72
2024/04/20 00:22:11;;;;;;;2.38;1.80;;;;;;;;;;5451098;26;20234;-72
2024/04/20 00:24:39;;;;;;;1.88;1.77;;;;;;;;;;5450966;26;20234;-72
2024/04/20 00:27:11;;;;;;;3.00;1.50;;;;;;;;;;5450962;26;20231;-71
2024/04/20 00:29:40;;;;;;;1.42;1.42;;;;;;;;;;5451274;26;20285;-72
2024/04/20 00:32:09;;;;;;;2.00;1.90;;;;;;;;;;5450918;26;20230;-72
2024/04/20 00:34:38;;;;;;;2.70;2.60;;;;;;;;;;5450543;26;20306;-71
2024/04/20 00:37:09;;;;;;;2.50;2.05;;;;;;;;;;5451282;26;20801;-71
2024/04/20 00:39:38;;;;;;;1.75;1.65;;;;;;;;;;5451165;26;20230;-72
2024/04/20 00:42:08;;;;;;;2.60;2.38;;;;;;;;;;5449754;26;20226;-72
2024/04/20 00:44:40;;;;;;;2.97;1.83;;;;;;;;;;5450542;26;20226;-72
2024/04/20 00:47:09;;;;;;;2.35;2.15;;;;;;;;;;5450726;26;21323;-72
2024/04/20 00:49:38;;;;;;;2.63;2.45;;;;;;;;;;5450850;26;20276;-71
2024/04/20 00:52:09;;;;;;;2.53;2.10;;;;;;;;;;5450632;26;20234;-71
2024/04/20 00:54:39;;;;;;;2.53;2.05;;;;;;;;;;5450370;26;20724;-71
2024/04/20 00:57:08;;;;;;;2.60;2.45;;;;;;;;;;5450519;26;20230;-72
2024/04/20 00:59:40;;;;;;;2.05;1.95;;;;;;;;;;5450620;26;20241;-72
2024/04/20 01:02:09;;;;;;;3.40;2.53;;;;;;;;;;5450482;26;20572;-72
2024/04/20 01:04:38;;;;;;;4.53;2.67;;;;;;;;;;5450398;26;20230;-71
2024/04/20 01:07:06;;;;;;;2.10;2.00;;;;;;;;;;5451028;26;20707;-71
2024/04/20 01:09:35;;;;;;;2.70;2.50;;;;;;;;;;5450376;26;20230;-71
2024/04/20 01:12:04;;;;;;;2.45;2.35;;;;;;;;;;5450379;26;20751;-71
2024/04/20 01:14:33;;;;;;;3.97;2.67;;;;;;;;;;5450378;26;20276;-71
2024/04/20 01:17:05;;;;;;;2.45;2.35;;;;;;;;;;5450314;26;20231;-71
2024/04/20 01:19:34;;;;;;;2.42;2.22;;;;;;;;;;5450604;26;20329;-71
2024/04/20 01:22:04;;;;;;;3.08;2.88;;;;;;;;;;5450285;26;20230;-71
2024/04/20 01:24:33;;;;;;;2.30;2.10;;;;;;;;;;5449889;26;20242;-71
2024/04/20 01:27:04;;;;;;;6.05;2.78;;;;;;;;;;5450143;26;20227;-71
2024/04/20 01:29:33;;;;;;;2.80;2.60;;;;;;;;;;5450443;26;20232;-71
2024/04/20 01:32:02;;;;;;;3.47;2.65;;;;;;;;;;5450406;26;20234;-71
2024/04/20 01:34:28;;;;;;;2.20;2.10;;;;;;;;;;5449791;26;21114;-71
2024/04/20 01:36:56;;;;;;;2.58;2.45;;;;;;;;;;5450095;26;20241;-71
2024/04/20 01:39:25;;;;;;;3.22;2.92;;;;;;;;;;5450080;26;20575;-71
2024/04/20 01:41:54;;;;;;;3.00;2.70;;;;;;;;;;5449935;26;20230;-71
2024/04/20 01:44:25;;;;;;;2.15;2.05;;;;;;;;;;5449712;26;20231;-71
2024/04/20 01:46:54;;;;;;;2.60;2.50;;;;;;;;;;5449796;26;20235;-71
2024/04/20 01:49:23;;;;;;;2.47;2.33;;;;;;;;;;5449754;26;20230;-71
2024/04/20 01:51:52;;;;;;;2.42;2.10;;;;;;;;;;5449408;26;20230;-71
2024/04/20 01:54:21;;;;;;;2.10;1.88;;;;;;;;;;5449409;26;20272;-71
2024/04/20 01:56:51;;;;;;;2.10;1.90;;;;;;;;;;5449673;26;20272;-72
2024/04/20 01:59:19;;;;;;;3.38;2.20;;;;;;;;;;5449689;26;20231;-71
2024/04/20 02:01:55;;;;;;;2.63;2.33;;;;;;;;;;5449422;26;20233;-71
2024/04/20 02:04:24;;;;;;;2.65;1.80;;;;;;;;;;5449433;26;20229;-71
2024/04/20 02:06:53;;;;;;;3.53;3.22;;;;;;;;;;5449791;26;20229;-71
2024/04/20 02:09:22;;;;;;;2.05;1.95;;;;;;;;;;5449554;26;20728;-71
2024/04/20 02:11:51;;;;;;;2.78;2.10;;;;;;;;;;5449432;26;20709;-71
2024/04/20 02:14:19;;;;;;;1.90;1.80;;;;;;;;;;5448969;26;20265;-71
2024/04/20 02:16:51;;;;;;;4.10;2.03;;;;;;;;;;5449362;26;20227;-71
2024/04/20 02:19:20;;;;;;;3.30;2.03;;;;;;;;;;5449599;26;20277;-71
2024/04/20 02:21:48;;;;;;;2.05;1.83;;;;;;;;;;5449424;26;20272;-71
2024/04/20 02:24:17;;;;;;;3.42;1.95;;;;;;;;;;5448907;26;20561;-71
2024/04/20 02:26:46;;;;;;;1.90;1.70;;;;;;;;;;5449281;26;20273;-71
2024/04/20 02:29:15;;;;;;;2.05;1.95;;;;;;;;;;5449360;26;20280;-71
2024/04/20 02:31:43;;;;;;;2.20;2.00;;;;;;;;;;5449210;26;20284;-71
2024/04/20 02:34:15;;;;;;;2.20;1.63;;;;;;;;;;5448779;26;20234;-71
2024/04/20 02:36:44;;;;;;;3.70;1.90;;;;;;;;;;5449159;26;20619;-71
2024/04/20 02:39:12;;;;;;;2.45;1.58;;;;;;;;;;5448942;26;20749;-71
2024/04/20 02:41:41;;;;;;;1.67;1.58;;;;;;;;;;5449166;26;20280;-71
2024/04/20 02:44:10;;;;;;;2.10;1.90;;;;;;;;;;5448621;26;20281;-71
2024/04/20 02:46:39;;;;;;;3.53;1.70;;;;;;;;;;5448919;26;20277;-71
2024/04/20 02:49:08;;;;;;;1.85;1.75;;;;;;;;;;5448794;26;20292;-71
2024/04/20 02:51:39;;;;;;;2.20;2.00;;;;;;;;;;5448757;26;20226;-71
2024/04/20 02:54:08;;;;;;;2.42;1.80;;;;;;;;;;5448318;26;20641;-72
2024/04/20 02:56:37;;;;;;;2.63;1.88;;;;;;;;;;5448808;26;20229;-71
2024/04/20 02:59:06;;;;;;;2.50;2.30;;;;;;;;;;5448679;26;20285;-72
2024/04/20 03:01:34;;;;;;;2.63;2.47;;;;;;;;;;5448641;26;20235;-71
2024/04/20 03:04:03;;;;;;;2.38;2.17;;;;;;;;;;5448855;26;20611;-71
2024/04/20 03:06:32;;;;;;;1.83;1.73;;;;;;;;;;5450611;26;20614;-71
2024/04/20 03:09:04;;;;;;;1.75;1.65;;;;;;;;;;5452119;26;20246;-72
2024/04/20 03:11:33;;;;;;;1.70;1.60;;;;;;;;;;5452366;26;20264;-71
2024/04/20 03:14:02;;;;;;;3.22;2.05;;;;;;;;;;5451666;26;20241;-71
2024/04/20 03:16:28;;;;;;;1.80;1.70;;;;;;;;;;5452146;26;20280;-72
2024/04/20 03:18:57;;;;;;;1.67;1.58;;;;;;;;;;5452052;26;20246;-72
2024/04/20 03:21:25;;;;;;;2.60;1.15;;;;;;;;;;5452077;26;20230;-72
2024/04/20 03:23:54;;;;;;;1.85;1.50;;;;;;;;;;5451818;26;20608;-72
2024/04/20 03:26:26;;;;;;;1.98;1.88;;;;;;;;;;5452002;26;20739;-72
2024/04/20 03:28:54;;;;;;;1.75;1.65;;;;;;;;;;5451791;26;20277;-72
2024/04/20 03:31:23;;;;;;;3.25;2.40;;;;;;;;;;5452073;26;20233;-72
2024/04/20 03:33:52;;;;;;;2.28;1.85;;;;;;;;;;5451452;26;20276;-72
2024/04/20 03:36:21;;;;;;;1.60;1.50;;;;;;;;;;5451815;26;20235;-72
2024/04/20 03:38:50;;;;;;;5.38;1.67;;;;;;;;;;5451628;26;20242;-72
2024/04/20 03:41:18;;;;;;;2.45;1.30;;;;;;;;;;5451702;26;20276;-72
2024/04/20 03:43:50;;;;;;;7.10;1.75;;;;;;;;;;5451419;26;20230;-71
2024/04/20 03:46:19;;;;;;;2.25;1.45;;;;;;;;;;5451622;26;20234;-71
2024/04/20 03:48:49;;;;;;;2.20;2.10;;;;;;;;;;5451628;26;20241;-72
2024/04/20 03:51:17;;;;;;;2.90;2.10;;;;;;;;;;5451550;26;20226;-72
2024/04/20 03:53:46;;;;;;;2.83;2.20;;;;;;;;;;5451036;26;20252;-72
2024/04/20 03:56:15;;;;;;;1.63;1.52;;;;;;;;;;5451619;26;20272;-72
2024/04/20 03:58:44;;;;;;;3.78;2.15;;;;;;;;;;5451206;26;20750;-72
2024/04/20 04:01:15;;;;;;;1.65;1.55;;;;;;;;;;5451420;26;20287;-71
2024/04/20 04:03:44;;;;;;;1.55;1.35;;;;;;;;;;5451236;26;20230;-72
2024/04/20 04:06:13;;;;;;;1.45;1.35;;;;;;;;;;5451386;26;20233;-72
2024/04/20 04:08:42;;;;;;;2.00;1.80;;;;;;;;;;5451370;26;20314;-72
2024/04/20 04:11:11;;;;;;;1.60;1.50;;;;;;;;;;5451710;26;20602;-72
2024/04/20 04:13:40;;;;;;;4.30;1.98;;;;;;;;;;5450805;26;20234;-72
2024/04/20 04:16:10;;;;;;;1.80;1.70;;;;;;;;;;5451220;26;20357;-72
2024/04/20 04:18:41;;;;;;;2.30;1.75;;;;;;;;;;5450964;26;20243;-72
2024/04/20 04:21:10;;;;;;;14.35;2.58;;;;;;;;;;5450983;26;20265;-71
2024/04/20 04:23:39;;;;;;;2.72;2.35;;;;;;;;;;5450703;26;20267;-72
2024/04/20 04:26:09;;;;;;;1.75;1.45;;;;;;;;;;5451124;26;20293;-72
2024/04/20 04:28:38;;;;;;;2.08;1.80;;;;;;;;;;5450771;26;20251;-72
2024/04/20 04:31:07;;;;;;;1.70;1.60;;;;;;;;;;5451293;26;20597;-72
2024/04/20 04:33:36;;;;;;;3.15;2.95;;;;;;;;;;5450819;26;20270;-72
2024/04/20 04:36:07;;;;;;;1.40;1.33;;;;;;;;;;5450922;26;20265;-72
2024/04/20 04:38:36;;;;;;;2.30;2.10;;;;;;;;;;5450933;26;20242;-72
2024/04/20 04:41:06;;;;;;;2.13;1.70;;;;;;;;;;5450993;26;20233;-72
2024/04/20 04:43:36;;;;;;;1.80;1.70;;;;;;;;;;5450645;26;20261;-72
2024/04/20 04:46:05;;;;;;;2.80;2.30;;;;;;;;;;5451050;26;20348;-72
2024/04/20 04:48:34;;;;;;;2.83;1.73;;;;;;;;;;5451165;26;20267;-72
2024/04/20 04:51:03;;;;;;;2.22;2.13;;;;;;;;;;5449944;26;20242;-72
2024/04/20 04:53:32;;;;;;;2.00;1.77;;;;;;;;;;5450535;26;20230;-73
2024/04/20 04:56:00;;;;;;;2.33;2.13;;;;;;;;;;5450933;26;21044;-72
2024/04/20 04:58:29;;;;;;;2.65;2.20;;;;;;;;;;5450399;26;20660;-72
2024/04/20 05:00:58;;;;;;;2.00;1.88;;;;;;;;;;5450928;26;20726;-72
2024/04/20 05:03:27;;;;;;;2.20;2.10;;;;;;;;;;5450377;26;20265;-72
2024/04/20 05:05:56;;;;;;;4.60;2.67;;;;;;;;;;5450867;26;20231;-72
2024/04/20 05:08:26;;;;;;;2.85;2.65;;;;;;;;;;5450437;26;20242;-72
2024/04/20 05:10:58;;;;;;;2.20;1.98;;;;;;;;;;5450299;26;20234;-72
2024/04/20 05:13:26;;;;;;;2.78;2.00;;;;;;;;;;5450286;26;20268;-72
2024/04/20 05:15:55;;;;;;;2.28;2.10;;;;;;;;;;5450762;26;20230;-72
2024/04/20 05:18:25;;;;;;;5.10;3.30;;;;;;;;;;5450468;26;20246;-72
2024/04/20 05:20:53;;;;;;;2.28;2.05;;;;;;;;;;5450403;26;20570;-72
2024/04/20 05:23:23;;;;;;;3.45;2.00;;;;;;;;;;5449951;26;20582;-72
2024/04/20 05:25:51;;;;;;;2.53;2.33;;;;;;;;;;5450728;26;20303;-72
2024/04/20 05:28:25;;;;;;;2.67;1.98;;;;;;;;;;5449602;26;20238;-72
2024/04/20 05:30:54;;;;;;;4.68;1.70;;;;;;;;;;5449861;26;20623;-72
2024/04/20 05:33:22;;;;;;;2.00;1.90;;;;;;;;;;5450051;26;20230;-72
2024/04/20 05:35:51;;;;;;;3.05;2.85;;;;;;;;;;5450131;26;20285;-72
2024/04/20 05:38:20;;;;;;;4.32;2.08;;;;;;;;;;5450193;26;20238;-72
2024/04/20 05:40:49;;;;;;;2.75;2.10;;;;;;;;;;5445125;26;20238;-72
2024/04/20 05:43:18;;;;;;;2.15;1.98;;;;;;;;;;5448824;26;20243;-72
2024/04/20 05:45:49;;;;;;;2.45;2.10;;;;;;;;;;5450109;26;20740;-72
2024/04/20 05:48:18;;;;;;;2.10;1.90;;;;;;;;;;5449561;26;20241;-73
2024/04/20 05:50:47;;;;;;;3.42;2.13;;;;;;;;;;5449824;26;20272;-72
2024/04/20 05:53:15;;;;;;;4.72;1.98;;;;;;;;;;5449525;26;20260;-73
2024/04/20 05:55:44;;;;;;;2.55;2.35;;;;;;;;;;5449644;26;20230;-73
2024/04/20 05:58:12;;;;;;;1.90;1.80;;;;;;;;;;5449244;26;20242;-72
2024/04/20 06:00:41;;;;;;;2.25;1.85;;;;;;;;;;5448761;26;20238;-73
2024/04/20 06:03:13;;;;;;;2.15;1.95;;;;;;;;;;5443694;26;20238;-73
2024/04/20 06:05:45;;;;;;;2.10;2.00;;;;;;;;;;5448771;26;20234;-72
2024/04/20 06:08:13;;;;;;;1.90;1.80;;;;;;;;;;5445693;26;20604;-73
2024/04/20 06:10:42;;;;;;;3.20;2.55;;;;;;;;;;5449676;26;20571;-73
2024/04/20 06:13:11;;;;;;;2.97;2.42;;;;;;;;;;5449463;26;20724;-73
2024/04/20 06:15:40;;;;;;;1.90;1.80;;;;;;;;;;5449480;26;20230;-73
2024/04/20 06:18:09;;;;;;;3.83;1.85;;;;;;;;;;5449530;26;20288;-73
2024/04/20 06:20:42;;;;;;;2.92;1.90;;;;;;;;;;5448625;26;20238;-73
2024/04/20 06:23:11;;;;;;;2.50;2.38;;;;;;;;;;5449052;26;20230;-72
2024/04/20 06:25:39;;;;;;;2.25;1.77;;;;;;;;;;5448407;26;20273;-73
2024/04/20 06:28:08;;;;;;;2.08;1.92;;;;;;;;;;5449453;26;20634;-73
2024/04/20 06:30:37;;;;;;;4.25;2.10;;;;;;;;;;5449278;26;20232;-73
2024/04/20 06:33:06;;;;;;;2.97;2.65;;;;;;;;;;5448849;26;20269;-73
2024/04/20 06:35:36;;;;;;;2.63;2.13;;;;;;;;;;5449557;26;20785;-72
2024/04/20 06:38:08;;;;;;;1.75;1.65;;;;;;;;;;5449643;26;20383;-74
2024/04/20 06:40:37;;;;;;;2.25;2.15;;;;;;;;;;5452338;26;20615;-72
2024/04/20 06:43:06;;;;;;;3.17;2.85;;;;;;;;;;5452598;26;20273;-73
2024/04/20 06:45:35;;;;;;;3.60;2.35;;;;;;;;;;5452811;26;20234;-73
2024/04/20 06:48:04;;;;;;;2.33;2.17;;;;;;;;;;5452605;26;20297;-73
2024/04/20 06:50:33;;;;;;;3.00;1.80;;;;;;;;;;5452796;26;20226;-73
2024/04/20 06:53:01;;;;;;;5.25;2.00;;;;;;;;;;5452513;26;20720;-73
2024/04/20 06:55:32;;;;;;;1.55;1.40;;;;;;;;;;5452534;26;20718;-74
2024/04/20 06:58:01;;;;;;;4.20;1.83;;;;;;;;;;5452573;26;20282;-74
2024/04/20 07:00:30;;;;;;;1.80;1.70;;;;;;;;;;5453080;26;20269;-74
2024/04/20 07:02:58;;;;;;;2.03;1.92;;;;;;;;;;5452155;26;20233;-73
2024/04/20 07:05:27;;;;;;;3.45;2.88;;;;;;;;;;5452549;26;20230;-74
2024/04/20 07:07:56;;;;;;;3.15;2.95;;;;;;;;;;5452582;26;20246;-74
2024/04/20 07:10:25;;;;;;;2.25;2.03;;;;;;;;;;5452270;26;20724;-73
2024/04/20 07:12:56;;;;;;;3.78;3.47;;;;;;;;;;5451849;26;20275;-74
2024/04/20 07:15:25;;;;;;;2.80;2.60;;;;;;;;;;5452511;26;20236;-74
2024/04/20 07:17:54;;;;;;;7.47;2.22;;;;;;;;;;5451995;26;20243;-74
2024/04/20 07:20:23;;;;;;;3.08;2.70;;;;;;;;;;5452190;26;20226;-73
2024/04/20 07:22:51;;;;;;;3.50;1.95;;;;;;;;;;5451814;26;20233;-73
2024/04/20 07:25:20;;;;;;;2.60;2.47;;;;;;;;;;5452095;26;20235;-73
2024/04/20 07:27:49;;;;;;;4.80;2.30;;;;;;;;;;5452038;26;20290;-73
2024/04/20 07:30:20;;;;;;;6.22;2.75;;;;;;;;;;5452545;26;20608;-73
2024/04/20 07:32:49;;;;;;;2.38;2.25;;;;;;;;;;5452190;26;20232;-73
2024/04/20 07:35:18;;;;;;;3.40;1.70;;;;;;;;;;5451994;26;20230;-74
2024/04/20 07:37:47;;;;;;;2.40;2.20;;;;;;;;;;5451826;26;20238;-74
2024/04/20 07:40:16;;;;;;;2.95;1.75;;;;;;;;;;5451978;26;20231;-74
2024/04/20 07:42:44;;;;;;;1.88;1.77;;;;;;;;;;5451456;26;20265;-74
2024/04/20 07:45:13;;;;;;;3.50;1.60;;;;;;;;;;5451770;26;20265;-74
2024/04/20 07:47:45;;;;;;;1.75;1.60;;;;;;;;;;5451730;26;20772;-74
2024/04/20 07:50:15;;;;;;;1.70;1.60;;;;;;;;;;5451653;26;20227;-74
2024/04/20 07:52:44;;;;;;;3.17;2.10;;;;;;;;;;5451152;26;20614;-74
2024/04/20 07:55:13;;;;;;;3.60;1.80;;;;;;;;;;5451643;26;20275;-74
2024/04/20 07:57:42;;;;;;;1.83;1.67;;;;;;;;;;5451517;26;20293;-75
2024/04/20 08:00:11;;;;;;;2.15;1.85;;;;;;;;;;5451613;26;20309;-74
2024/04/20 08:02:40;;;;;;;1.60;1.50;;;;;;;;;;5451424;26;20278;-74
2024/04/20 08:05:11;;;;;;;2.25;2.10;;;;;;;;;;5451675;26;20236;-75
2024/04/20 08:07:40;;;;;;;1.73;1.63;;;;;;;;;;5451346;26;20246;-74
2024/04/20 08:10:10;;;;;;;1.38;1.38;;;;;;;;;;5451407;26;20278;-75
2024/04/20 08:12:40;;;;;;;1.73;1.60;;;;;;;;;;5451303;26;20689;-75
2024/04/20 08:15:09;;;;;;;2.05;1.90;;;;;;;;;;5448557;26;20240;-74
2024/04/20 08:17:39;;;;;;;1.47;1.30;;;;;;;;;;5450924;26;20646;-75
2024/04/20 08:20:08;;;;;;;1.98;1.85;;;;;;;;;;5451082;26;20470;-75
2024/04/20 08:22:39;;;;;;;1.73;1.13;;;;;;;;;;5450125;26;20587;-75
2024/04/20 08:25:08;;;;;;;2.07;1.17;;;;;;;;;;5451054;26;20471;-76
2024/04/20 08:27:37;;;;;;;3.08;1.70;;;;;;;;;;5449188;26;20539;-76
2024/04/20 08:30:06;;;;;;;1.27;1.23;;;;;;;;;;5440813;26;20241;-76
2024/04/20 08:32:32;;;;;;;2.23;1.40;;;;;;;;;;5447463;26;20243;-76
2024/04/20 08:35:01;;;;;;;1.23;1.13;;;;;;;;;;5418612;26;20588;-76
2024/04/20 08:37:33;;;;;;;1.73;1.63;;;;;;;;;;5448161;26;20477;-76
2024/04/20 08:40:04;;;;;;;1.40;1.30;;;;;;;;;;5433517;26;20478;-75
2024/04/20 08:42:36;;;;;;;3.10;1.75;;;;;;;;;;5437056;26;20286;-76
2024/04/20 08:45:08;;;;;;;3.27;1.13;;;;;;;;;;5420479;26;20265;-76
2024/04/20 08:47:38;;;;;;;1.50;1.40;;;;;;;;;;5440335;26;20469;-75
2024/04/20 08:50:07;;;;;;;1.38;1.20;;;;;;;;;;5430897;26;20519;-76
2024/04/20 08:52:37;;;;;;;2.53;1.58;;;;;;;;;;5425849;26;20240;-76
2024/04/20 08:55:11;;;;;;;1.80;0.90;;;;;;;;;;5443864;26;20239;-75
2024/04/20 08:57:41;;;;;;;1.50;1.40;;;;;;;;;;5424133;26;21017;-76
2024/04/20 09:00:11;;;;;;;1.80;1.27;;;;;;;;;;5432500;26;20280;-76
2024/04/20 09:02:42;;;;;;;1.73;1.60;;;;;;;;;;5437461;26;20696;-76
2024/04/20 09:05:12;;;;;;;2.00;1.03;;;;;;;;;;5420226;26;20289;-76
2024/04/20 09:07:41;;;;;;;4.03;2.20;;;;;;;;;;5439358;26;20557;-76
2024/04/20 09:10:13;;;;;;;1.30;1.20;;;;;;;;;;5431669;26;20474;-76
2024/04/20 09:12:41;;;;;;;2.27;1.30;;;;;;;;;;5424483;26;20484;-76
2024/04/20 09:15:11;;;;;;;4.10;1.20;;;;;;;;;;5443439;26;20521;-76
2024/04/20 09:17:40;;;;;;;3.40;1.03;;;;;;;;;;5423754;26;20481;-76
2024/04/20 09:20:10;;;;;;;3.77;1.83;;;;;;;;;;5432197;26;20475;-77
2024/04/20 09:22:39;;;;;;;1.07;1.07;;;;;;;;;;5437434;26;20468;-77
2024/04/20 09:25:09;;;;;;;1.30;1.20;;;;;;;;;;5418022;26;20459;-77
2024/04/20 09:27:41;;;;;;;0.97;0.93;;;;;;;;;;5439590;26;20526;-75
2024/04/20 09:30:11;;;;;;;6.10;1.43;;;;;;;;;;5431267;26;20490;-76
2024/04/20 09:32:41;;;;;;;1.40;1.20;;;;;;;;;;5424413;26;20537;-77
2024/04/20 09:35:10;;;;;;;1.93;1.13;;;;;;;;;;5443533;26;21290;-76
2024/04/20 09:37:39;;;;;;;1.10;1.10;;;;;;;;;;5422994;26;20482;-76
2024/04/20 09:40:08;;;;;;;1.10;1.10;;;;;;;;;;5432597;26;20887;-78
2024/04/20 09:42:38;;;;;;;1.33;1.33;;;;;;;;;;5437449;26;20929;-76
2024/04/20 09:45:11;;;;;;;1.20;1.20;;;;;;;;;;5419460;26;21321;-77
2024/04/20 09:47:40;;;;;;;1.13;1.07;;;;;;;;;;5439034;26;20483;-76
2024/04/20 09:50:11;;;;;;;1.53;1.43;;;;;;;;;;5430647;26;21082;-76
2024/04/20 09:52:48;;;;;;;1.20;1.10;;;;;;;;;;5424218;26;20491;-76
2024/04/20 09:55:19;;;;;;;1.10;1.10;;;;;;;;;;5443433;26;20526;-77
2024/04/20 09:57:48;;;;;;;0.93;0.80;;;;;;;;;;5424982;26;20477;-76
2024/04/20 10:00:22;;;;;;;0.97;0.97;;;;;;;;;;5430243;26;20482;-77
2024/04/20 10:02:48;;;;;;;1.80;1.20;;;;;;;;;;5441046;26;21113;-76
2024/04/20 10:05:18;;;;;;;1.13;1.00;;;;;;;;;;5419458;26;20491;-76
2024/04/20 10:07:47;;;;;;;2.30;2.10;;;;;;;;;;5437026;26;21174;-76
2024/04/20 10:10:17;;;;;;;1.50;1.40;;;;;;;;;;5431999;26;20466;-76
2024/04/20 10:12:46;;;;;;;0.80;0.80;;;;;;;;;;5422239;26;21107;-77
2024/04/20 10:15:16;;;;;;;1.27;1.10;;;;;;;;;;5442810;26;20474;-78
2024/04/20 10:17:47;;;;;;;1.43;1.33;;;;;;;;;;5423595;26;20498;-77
2024/04/20 10:20:16;;;;;;;1.67;1.20;;;;;;;;;;5429790;26;20532;-75
2024/04/20 10:22:45;;;;;;;2.80;1.10;;;;;;;;;;5438734;26;20521;-77
2024/04/20 10:25:14;;;;;;;1.27;1.10;;;;;;;;;;5418920;26;20539;-77
2024/04/20 10:27:43;;;;;;;1.40;1.30;;;;;;;;;;5437763;26;20484;-77
2024/04/20 10:30:12;;;;;;;1.17;0.70;;;;;;;;;;5430620;26;20481;-77
2024/04/20 10:32:41;;;;;;;0.83;0.80;;;;;;;;;;5422975;26;20487;-79
2024/04/20 10:35:13;;;;;;;0.77;0.73;;;;;;;;;;5443166;26;20902;-78
2024/04/20 10:37:42;;;;;;;1.27;1.17;;;;;;;;;;5425109;26;20835;-78
2024/04/20 10:40:11;;;;;;;0.60;0.60;;;;;;;;;;5432391;26;20897;-78
2024/04/20 10:42:40;;;;;;;0.70;0.70;;;;;;;;;;5438942;26;20482;-78
2024/04/20 10:45:10;;;;;;;1.10;1.00;;;;;;;;;;5418786;26;20480;-79
2024/04/20 10:47:39;;;;;;;0.80;0.80;;;;;;;;;;5440098;26;20484;-78
2024/04/20 10:50:08;;;;;;;0.90;0.90;;;;;;;;;;5429497;26;20475;-79
2024/04/20 10:52:39;;;;;;;1.50;0.80;;;;;;;;;;5424113;26;20528;-78
2024/04/20 10:55:14;;;;;;;0.90;0.90;;;;;;;;;;5443556;26;21060;-79
2024/04/20 10:57:42;;;;;;;1.03;1.00;;;;;;;;;;5424348;26;20483;-78
2024/04/20 11:00:12;;;;;;;1.63;1.43;;;;;;;;;;5430348;26;20488;-79
2024/04/20 11:02:41;;;;;;;4.03;1.87;;;;;;;;;;5439016;26;21100;-78
2024/04/20 11:05:10;;;;;;;0.83;0.73;;;;;;;;;;5419185;26;20464;-78
2024/04/20 11:07:42;;;;;;;0.53;0.53;;;;;;;;;;5438896;26;20544;-77
2024/04/20 11:10:11;;;;;;;0.80;0.60;;;;;;;;;;5429565;26;20533;-76
2024/04/20 11:12:39;;;;;;;0.70;0.70;;;;;;;;;;5422587;26;20479;-76
2024/04/20 11:15:08;;;;;;;0.50;0.50;;;;;;;;;;5441671;26;20475;-76
2024/04/20 11:17:37;;;;;;;0.60;0.60;;;;;;;;;;5420825;26;20475;-77
2024/04/20 11:20:06;;;;;;;8.50;1.27;;;;;;;;;;5431016;26;20477;-75
2024/04/20 11:22:35;;;;;;;1.20;1.10;;;;;;;;;;5435507;26;20541;-76
2024/04/20 11:25:14;;;;;;;0.80;0.80;;;;;;;;;;5417678;26;20477;-77
2024/04/20 11:27:45;;;;;;;1.03;0.90;;;;;;;;;;5440158;26;20484;-76
2024/04/20 11:30:15;;;;;;;2.30;1.00;;;;;;;;;;5433468;26;20478;-77
2024/04/20 11:32:44;;;;;;;1.27;1.20;;;;;;;;;;5425084;26;21092;-76
2024/04/20 11:35:13;;;;;;;1.67;1.07;;;;;;;;;;5445451;26;20523;-76
2024/04/20 11:37:42;;;;;;;1.50;1.40;;;;;;;;;;5426156;26;21140;-76
2024/04/20 11:40:14;;;;;;;2.43;1.27;;;;;;;;;;5433679;26;21083;-77
2024/04/20 11:42:44;;;;;;;1.37;1.30;;;;;;;;;;5440395;26;20474;-76
2024/04/20 11:45:15;;;;;;;1.17;1.07;;;;;;;;;;5421366;26;20476;-76
2024/04/20 11:47:44;;;;;;;1.10;1.10;;;;;;;;;;5439710;26;20613;-76
2024/04/20 11:50:17;;;;;;;1.23;1.13;;;;;;;;;;5433380;26;21396;-76
2024/04/20 11:55:41;;;;;;;0.80;0.80;;;;;;;;;;5427310;26;20527;-76
2024/04/20 11:58:10;;;;;;;1.20;1.10;;;;;;;;;;5433335;26;20583;-76
2024/04/20 12:00:39;;;;;;;2.27;1.50;;;;;;;;;;5439739;26;20475;-76
2024/04/20 12:03:08;;;;;;;1.57;1.47;;;;;;;;;;5420469;26;20577;-76
2024/04/20 12:05:37;;;;;;;0.90;0.90;;;;;;;;;;5441671;26;20472;-76
2024/04/20 12:08:06;;;;;;;1.50;1.40;;;;;;;;;;5431042;26;20533;-77
2024/04/20 12:10:35;;;;;;;1.60;0.97;;;;;;;;;;5427370;26;20479;-76
2024/04/20 12:13:06;;;;;;;7.50;2.00;;;;;;;;;;5442817;26;20531;-76
2024/04/20 12:15:35;;;;;;;2.63;1.73;;;;;;;;;;5422857;26;20494;-76
2024/04/20 12:18:04;;;;;;;1.60;1.13;;;;;;;;;;5434105;26;20544;-77
2024/04/20 12:20:32;;;;;;;8.50;1.60;;;;;;;;;;5437228;26;20478;-76
2024/04/20 12:23:01;;;;;;;1.30;1.20;;;;;;;;;;5420509;26;20487;-76
2024/04/20 12:25:30;;;;;;;1.40;1.30;;;;;;;;;;5443158;26;20521;-76
2024/04/20 12:27:59;;;;;;;2.20;1.43;;;;;;;;;;5429145;26;20522;-77
2024/04/20 12:30:30;;;;;;;1.47;1.10;;;;;;;;;;5428430;26;20491;-76
2024/04/20 12:32:59;;;;;;;1.50;1.20;;;;;;;;;;5443614;26;20520;-76
2024/04/20 12:35:28;;;;;;;0.90;0.90;;;;;;;;;;5422429;26;20476;-74
2024/04/20 12:37:57;;;;;;;1.33;1.10;;;;;;;;;;5434349;26;20515;-77
2024/04/20 12:40:26;;;;;;;2.03;1.93;;;;;;;;;;5434148;26;20519;-77
2024/04/20 12:42:55;;;;;;;0.90;0.90;;;;;;;;;;5448356;26;20526;-78
2024/04/20 12:45:29;;;;;;;1.40;1.30;;;;;;;;;;5419724;26;20463;-76
2024/04/20 12:48:01;;;;;;;3.50;1.40;;;;;;;;;;5436107;26;20520;-77
2024/04/20 12:50:29;;;;;;;1.00;1.00;;;;;;;;;;5436779;26;20535;-76
2024/04/20 12:52:58;;;;;;;0.93;0.93;;;;;;;;;;5420455;26;20477;-76
2024/04/20 12:55:27;;;;;;;2.20;0.83;;;;;;;;;;5420921;26;20467;-78
2024/04/20 12:57:56;;;;;;;2.70;1.07;;;;;;;;;;5436404;26;20527;-76
2024/04/20 13:00:26;;;;;;;2.20;1.50;;;;;;;;;;5435161;26;21020;-76
2024/04/20 13:02:55;;;;;;;1.83;1.17;;;;;;;;;;5420314;26;21094;-76
2024/04/20 13:05:27;;;;;;;1.70;1.40;;;;;;;;;;5442886;26;20472;-76
2024/04/20 13:07:55;;;;;;;1.07;1.07;;;;;;;;;;5427292;26;20475;-77
2024/04/20 13:10:24;;;;;;;1.20;1.20;;;;;;;;;;5428305;26;20473;-76
2024/04/20 13:12:53;;;;;;;2.80;2.60;;;;;;;;;;5441901;26;20528;-77
2024/04/20 13:15:22;;;;;;;1.00;0.90;;;;;;;;;;5420252;26;21164;-77
2024/04/20 13:17:52;;;;;;;2.70;1.37;;;;;;;;;;5437441;26;20469;-76
2024/04/20 13:20:23;;;;;;;2.00;1.10;;;;;;;;;;5434283;26;20479;-77
2024/04/20 13:22:54;;;;;;;2.37;1.10;;;;;;;;;;5421756;26;20481;-76
2024/04/20 13:25:23;;;;;;;1.00;1.00;;;;;;;;;;5443556;26;20464;-77
2024/04/20 13:27:52;;;;;;;1.60;1.50;;;;;;;;;;5426466;26;20480;-76
2024/04/20 13:30:20;;;;;;;1.43;1.30;;;;;;;;;;5429722;26;20825;-76
2024/04/20 13:32:51;;;;;;;1.23;1.13;;;;;;;;;;5440460;26;20572;-76
2024/04/20 13:35:20;;;;;;;1.63;1.53;;;;;;;;;;5419943;26;21342;-77
2024/04/20 13:37:48;;;;;;;1.87;1.77;;;;;;;;;;5437520;26;20475;-77
2024/04/20 13:40:20;;;;;;;2.00;1.23;;;;;;;;;;5432708;26;20477;-76
2024/04/20 13:42:49;;;;;;;1.37;1.27;;;;;;;;;;5421915;26;20500;-77
2024/04/20 13:45:18;;;;;;;1.83;1.57;;;;;;;;;;5443132;26;20933;-76
2024/04/20 13:47:47;;;;;;;1.20;1.10;;;;;;;;;;5424411;26;20486;-76
2024/04/20 13:50:16;;;;;;;1.73;1.33;;;;;;;;;;5430456;26;20529;-76
2024/04/20 13:52:45;;;;;;;1.03;0.90;;;;;;;;;;5439066;26;20475;-77
2024/04/20 13:55:14;;;;;;;1.50;1.40;;;;;;;;;;5419465;26;20548;-76
2024/04/20 13:57:46;;;;;;;1.17;1.07;;;;;;;;;;5438362;26;20839;-77
2024/04/20 14:00:16;;;;;;;1.43;1.33;;;;;;;;;;5431795;26;20486;-76
2024/04/20 14:02:45;;;;;;;1.70;1.53;;;;;;;;;;5422538;26;20597;-76
2024/04/20 14:05:14;;;;;;;1.07;1.07;;;;;;;;;;5443143;26;20474;-76
2024/04/20 14:07:45;;;;;;;1.30;1.10;;;;;;;;;;5424038;26;20486;-76
2024/04/20 14:10:14;;;;;;;2.80;1.90;;;;;;;;;;5431131;26;20594;-76
2024/04/20 14:12:46;;;;;;;2.63;1.20;;;;;;;;;;5438401;26;21102;-77
2024/04/20 14:15:14;;;;;;;1.20;1.10;;;;;;;;;;5418939;26;20540;-76
2024/04/20 14:17:43;;;;;;;1.90;1.23;;;;;;;;;;5437770;26;20481;-76
2024/04/20 14:20:17;;;;;;;2.07;1.40;;;;;;;;;;5430676;26;20527;-76
2024/04/20 14:22:46;;;;;;;1.30;1.20;;;;;;;;;;5421914;26;20527;-75
2024/04/20 14:25:15;;;;;;;1.53;1.40;;;;;;;;;;5442344;26;20521;-76
2024/04/20 14:27:48;;;;;;;1.60;1.33;;;;;;;;;;5423421;26;20479;-76
2024/04/20 14:30:17;;;;;;;3.90;1.30;;;;;;;;;;5429530;26;20487;-76
2024/04/20 14:32:46;;;;;;;2.03;1.30;;;;;;;;;;5438010;26;20551;-75
2024/04/20 14:35:14;;;;;;;1.33;1.10;;;;;;;;;;5418782;26;20887;-75
2024/04/20 14:37:43;;;;;;;1.30;1.30;;;;;;;;;;5448344;26;20470;-76
2024/04/20 14:40:13;;;;;;;1.17;1.10;;;;;;;;;;5430515;26;21105;-76
2024/04/20 14:42:41;;;;;;;1.63;1.30;;;;;;;;;;5437345;26;20548;-75
2024/04/20 14:45:13;;;;;;;1.40;1.20;;;;;;;;;;5418525;26;20827;-76
2024/04/20 14:47:42;;;;;;;1.40;1.30;;;;;;;;;;5438154;26;20536;-76
2024/04/20 14:50:10;;;;;;;2.57;2.47;;;;;;;;;;5430112;26;20527;-75
2024/04/20 14:52:39;;;;;;;2.07;1.40;;;;;;;;;;5423820;26;20481;-76
2024/04/20 14:55:08;;;;;;;2.03;1.73;;;;;;;;;;5442154;26;20525;-76
2024/04/20 14:57:37;;;;;;;2.20;1.17;;;;;;;;;;5422031;26;20472;-76
2024/04/20 15:00:07;;;;;;;1.50;1.40;;;;;;;;;;5432509;26;20469;-76